Orbital elements of COSMOS 2251 DEB
| Launched | 15 June 1993 |
| Flight ended | – |
| Launch site | Plesetsk Missile and Space Complex, Russia |
| Owner | Commonwealth of Independent States (former USSR) |
| NORAD ID | 35602 |
| Date fetched |
Epoch osculation |
Inc. [°] |
Ecc. | RA asc node [hr] |
Arg Peri. [°] |
Mean anom [°] |
Mean motion [rev/day] |
Abs. mag |
| Date fetched |
Epoch osculation |
Inc. [°] |
Ecc. | RA asc node [hr] |
Arg Peri. [°] |
Mean anom [°] |
Mean motion [rev/day] |
Abs. mag |
| 2026 May 03 17:57 | 2026 Apr 29 18:59:36 | 73.9925 | 0.00774 | 16.2471 | 272.2833 | 239.3802 | 15.41704 | – |
| 2026 May 02 17:57 | 2026 Apr 29 18:59:36 | 73.9925 | 0.00774 | 16.2471 | 272.2833 | 239.3802 | 15.41704 | – |
| 2026 May 01 17:56 | 2026 Apr 29 18:59:36 | 73.9925 | 0.00774 | 16.2471 | 272.2833 | 239.3802 | 15.41704 | – |
| 2026 Apr 30 17:56 | 2026 Apr 29 18:59:36 | 73.9925 | 0.00774 | 16.2471 | 272.2833 | 239.3802 | 15.41704 | – |
| 2026 Apr 29 17:57 | 2026 Apr 23 15:59:29 | 73.9924 | 0.00775 | 17.1342 | 286.7487 | 239.3802 | 15.41704 | – |
| 2026 Apr 28 17:56 | 2026 Apr 23 15:59:29 | 73.9924 | 0.00775 | 17.1342 | 286.7487 | 239.3802 | 15.41704 | – |
| 2026 Apr 27 17:58 | 2026 Apr 23 15:59:29 | 73.9924 | 0.00775 | 17.1342 | 286.7487 | 239.3802 | 15.41704 | – |
| 2026 Apr 26 17:58 | 2026 Apr 23 15:59:29 | 73.9924 | 0.00775 | 17.1342 | 286.7487 | 239.3802 | 15.41704 | – |
| 2026 Apr 25 17:58 | 2026 Apr 23 15:59:29 | 73.9924 | 0.00775 | 17.1342 | 286.7487 | 239.3802 | 15.41704 | – |
| 2026 Apr 24 17:59 | 2026 Apr 23 15:59:29 | 73.9924 | 0.00775 | 17.1342 | 286.7487 | 239.3802 | 15.41704 | – |
| 2026 Apr 23 17:57 | 2026 Apr 18 21:18:47 | 73.9920 | 0.00775 | 17.8260 | 298.0970 | 239.3802 | 15.41704 | – |
| 2026 Apr 22 17:57 | 2026 Apr 18 21:18:47 | 73.9920 | 0.00775 | 17.8260 | 298.0970 | 239.3802 | 15.41704 | – |
| 2026 Apr 21 17:57 | 2026 Apr 18 21:18:47 | 73.9920 | 0.00775 | 17.8260 | 298.0970 | 239.3802 | 15.41704 | – |
| 2026 Apr 20 17:57 | 2026 Apr 18 21:18:47 | 73.9920 | 0.00775 | 17.8260 | 298.0970 | 239.3802 | 15.41704 | – |
| 2026 Apr 19 17:58 | 2026 Apr 18 21:18:47 | 73.9920 | 0.00775 | 17.8260 | 298.0970 | 239.3802 | 15.41704 | – |
| 2026 Apr 18 17:56 | 2026 Apr 12 18:16:35 | 73.9915 | 0.00774 | 18.7129 | 312.7482 | 239.3802 | 15.41704 | – |
| 2026 Apr 16 17:57 | 2026 Apr 12 18:16:35 | 73.9915 | 0.00774 | 18.7129 | 312.7482 | 239.3802 | 15.41704 | – |
| 2026 Apr 14 17:57 | 2026 Apr 12 18:16:35 | 73.9915 | 0.00774 | 18.7129 | 312.7482 | 239.3802 | 15.41704 | – |
| 2026 Apr 13 17:57 | 2026 Apr 12 18:16:35 | 73.9915 | 0.00774 | 18.7129 | 312.7482 | 239.3802 | 15.41704 | – |
| 2026 Apr 12 17:57 | 2026 Apr 07 23:34:37 | 73.9919 | 0.00773 | 19.4045 | 324.3318 | 239.3802 | 15.41704 | – |
| 2026 Apr 11 17:57 | 2026 Apr 07 23:34:37 | 73.9919 | 0.00773 | 19.4045 | 324.3318 | 239.3802 | 15.41704 | – |
| 2026 Apr 10 17:58 | 2026 Apr 07 23:34:37 | 73.9919 | 0.00773 | 19.4045 | 324.3318 | 239.3802 | 15.41704 | – |
| 2026 Apr 09 18:01 | 2026 Apr 07 23:34:37 | 73.9919 | 0.00773 | 19.4045 | 324.3318 | 239.3802 | 15.41704 | – |
| 2026 Apr 08 17:57 | 2026 Apr 07 23:34:37 | 73.9919 | 0.00773 | 19.4045 | 324.3318 | 239.3802 | 15.41704 | – |
| 2026 Apr 07 17:57 | 2026 Apr 02 08:07:35 | 73.9919 | 0.00772 | 20.2211 | 337.9991 | 239.3802 | 15.41704 | – |
| 2026 Apr 06 17:57 | 2026 Apr 02 08:07:35 | 73.9919 | 0.00772 | 20.2211 | 337.9991 | 239.3802 | 15.41704 | – |